Time,TemperatureF,DewpointF,PressureIn,WindDirection,WindDirectionDegrees,WindSpeedMPH,WindSpeedGustMPH,Humidity,HourlyPrecipIn,Conditions,Clouds,dailyrainin,SoftwareType,DateUTC
2013-08-08 00:12:00,66.5,65.0,29.97,NE,34,1.0,4.0,95,0.00,,,0.74,weatherlink.com 1.10,2013-08-08 05:12:00,
2013-08-08 00:27:00,65.7,64.0,29.97,NE,34,0.0,3.0,95,0.00,,,0.74,weatherlink.com 1.10,2013-08-08 05:27:00,
2013-08-08 00:42:00,66.1,65.0,29.97,NE,34,2.0,4.0,95,0.00,,,0.74,weatherlink.com 1.10,2013-08-08 05:42:00,
2013-08-08 00:57:00,66.0,64.0,29.98,NE,34,0.0,3.0,94,0.00,,,0.74,weatherlink.com 1.10,2013-08-08 05:57:00,
2013-08-08 01:13:00,65.0,64.0,29.98,NNE,33,0.0,3.0,96,0.00,,,0.74,weatherlink.com 1.10,2013-08-08 06:13:00,
2013-08-08 01:28:00,65.0,64.0,29.98,NNE,33,0.0,3.0,95,0.00,,,0.74,weatherlink.com 1.10,2013-08-08 06:28:00,
2013-08-08 01:43:00,64.6,64.0,29.98,NNE,33,0.0,0.0,96,0.00,,,0.74,weatherlink.com 1.10,2013-08-08 06:43:00,
2013-08-08 01:58:00,64.4,63.0,29.98,NE,34,1.0,2.0,96,0.00,,,0.74,weatherlink.com 1.10,2013-08-08 06:58:00,
2013-08-08 02:13:00,64.6,64.0,29.98,NNE,32,1.0,5.0,97,0.00,,,0.74,weatherlink.com 1.10,2013-08-08 07:13:00,
2013-08-08 02:28:00,65.1,64.0,29.98,NNE,32,2.0,3.0,97,0.00,,,0.74,weatherlink.com 1.10,2013-08-08 07:28:00,
2013-08-08 02:43:00,65.3,64.0,29.98,NNE,31,4.0,5.0,96,0.00,,,0.74,weatherlink.com 1.10,2013-08-08 07:43:00,
2013-08-08 02:58:00,66.2,65.0,29.98,NNE,33,4.0,5.0,96,0.00,,,0.74,weatherlink.com 1.10,2013-08-08 07:58:00,
2013-08-08 03:13:00,66.7,66.0,29.98,NNE,27,5.0,7.0,96,0.00,,,0.00,weatherlink.com 1.10,2013-08-08 08:13:00,
2013-08-08 03:28:00,67.0,66.0,29.98,NNE,27,5.0,9.0,95,0.00,,,0.00,weatherlink.com 1.10,2013-08-08 08:28:00,
2013-08-08 03:43:00,67.1,65.0,29.98,NE,51,5.0,7.0,94,0.00,,,0.00,weatherlink.com 1.10,2013-08-08 08:43:00,
2013-08-08 03:58:00,67.2,65.0,29.98,NE,35,3.0,7.0,93,0.00,,,0.00,weatherlink.com 1.10,2013-08-08 08:58:00,
2013-08-08 04:13:00,67.1,65.0,29.98,NE,37,2.0,4.0,92,0.00,,,0.00,weatherlink.com 1.10,2013-08-08 09:13:00,
2013-08-08 04:28:00,67.1,65.0,29.98,NE,56,5.0,5.0,91,0.00,,,0.00,weatherlink.com 1.10,2013-08-08 09:28:00,
2013-08-08 04:43:00,67.0,64.0,29.98,NE,37,3.0,7.0,90,0.00,,,0.00,weatherlink.com 1.10,2013-08-08 09:43:00,
2013-08-08 04:58:00,66.9,64.0,29.98,NE,35,3.0,7.0,90,0.00,,,0.00,weatherlink.com 1.10,2013-08-08 09:58:00,
2013-08-08 05:13:00,66.8,64.0,29.98,NE,41,5.0,8.0,89,0.00,,,0.00,weatherlink.com 1.10,2013-08-08 10:13:00,
2013-08-08 05:28:00,66.5,63.0,29.98,NE,52,1.0,8.0,89,0.00,,,0.00,weatherlink.com 1.10,2013-08-08 10:28:00,
2013-08-08 05:43:00,66.1,63.0,29.98,ENE,57,3.0,10.0,90,0.00,,,0.00,weatherlink.com 1.10,2013-08-08 10:43:00,
2013-08-08 05:58:00,65.6,63.0,29.98,NE,43,6.0,7.0,90,0.00,,,0.00,weatherlink.com 1.10,2013-08-08 10:58:00,
2013-08-08 06:13:00,65.7,63.0,29.99,NNE,30,4.0,5.0,90,0.00,,,0.00,weatherlink.com 1.10,2013-08-08 11:13:00,
2013-08-08 06:28:00,65.6,63.0,29.99,NE,48,3.0,5.0,91,0.00,,,0.00,weatherlink.com 1.10,2013-08-08 11:28:00,
2013-08-08 06:43:00,65.5,63.0,29.99,NE,49,3.0,9.0,90,0.00,,,0.00,weatherlink.com 1.10,2013-08-08 11:43:00,
2013-08-08 06:58:00,65.7,63.0,29.99,ENE,60,3.0,7.0,90,0.00,,,0.00,weatherlink.com 1.10,2013-08-08 11:58:00,
2013-08-08 07:13:00,66.3,63.0,29.98,ENE,66,0.0,6.0,89,0.00,,,0.00,weatherlink.com 1.10,2013-08-08 12:13:00,
2013-08-08 07:28:00,66.9,63.0,29.99,NE,56,5.0,8.0,87,0.00,,,0.00,weatherlink.com 1.10,2013-08-08 12:28:00,
2013-08-08 07:43:00,66.7,63.0,30.00,NE,53,3.0,11.0,87,0.00,,,0.00,weatherlink.com 1.10,2013-08-08 12:43:00,
2013-08-08 07:58:00,67.6,63.0,30.01,ENE,68,12.0,12.0,86,0.00,,,0.00,weatherlink.com 1.10,2013-08-08 12:58:00,
2013-08-08 08:13:00,68.0,63.0,30.02,NE,47,3.0,9.0,85,0.00,,,0.00,weatherlink.com 1.10,2013-08-08 13:13:00,
2013-08-08 08:28:00,68.7,64.0,30.03,ENE,60,5.0,10.0,84,0.00,,,0.00,weatherlink.com 1.10,2013-08-08 13:28:00,
2013-08-08 08:43:00,69.7,64.0,30.03,NE,41,2.0,9.0,83,0.00,,,0.00,weatherlink.com 1.10,2013-08-08 13:43:00,
2013-08-08 08:58:00,70.4,65.0,30.03,NE,53,7.0,9.0,82,0.00,,,0.00,weatherlink.com 1.10,2013-08-08 13:58:00,
2013-08-08 09:13:00,71.5,65.0,30.03,NNE,28,8.0,9.0,80,0.00,,,0.00,weatherlink.com 1.10,2013-08-08 14:13:00,
2013-08-08 09:28:00,71.5,65.0,30.02,NNE,33,8.0,13.0,80,0.00,,,0.00,weatherlink.com 1.10,2013-08-08 14:28:00,
2013-08-08 09:43:00,72.6,66.0,30.02,North,1,7.0,11.0,80,0.00,,,0.00,weatherlink.com 1.10,2013-08-08 14:43:00,
2013-08-08 09:58:00,72.5,66.0,30.01,NNE,26,4.0,10.0,79,0.00,,,0.00,weatherlink.com 1.10,2013-08-08 14:58:00,
2013-08-08 10:13:00,72.8,66.0,30.01,ENE,66,7.0,10.0,79,0.00,,,0.00,weatherlink.com 1.10,2013-08-08 15:13:00,
2013-08-08 10:28:00,73.6,66.0,30.02,ENE,74,2.0,13.0,77,0.00,,,0.00,weatherlink.com 1.10,2013-08-08 15:28:00,
2013-08-08 10:44:00,74.0,66.0,30.02,ESE,114,3.0,9.0,77,0.00,,,0.00,weatherlink.com 1.10,2013-08-08 15:44:00,
2013-08-08 10:59:00,74.6,65.0,30.03,ESE,112,4.0,11.0,73,0.00,,,0.00,weatherlink.com 1.10,2013-08-08 15:59:00,
2013-08-08 11:14:00,74.9,64.0,30.04,ESE,104,4.0,10.0,69,0.00,,,0.00,weatherlink.com 1.10,2013-08-08 16:14:00,
2013-08-08 11:29:00,75.6,66.0,30.04,ESE,104,2.0,9.0,72,0.00,,,0.00,weatherlink.com 1.10,2013-08-08 16:29:00,
2013-08-08 11:44:00,76.4,65.0,30.03,NNE,28,8.0,10.0,68,0.00,,,0.00,weatherlink.com 1.10,2013-08-08 16:44:00,
2013-08-08 11:59:00,77.1,66.0,30.02,NE,47,3.0,9.0,68,0.00,,,0.00,weatherlink.com 1.10,2013-08-08 16:59:00,
2013-08-08 12:14:00,77.4,66.0,30.02,NE,39,8.0,11.0,67,0.00,,,0.00,weatherlink.com 1.10,2013-08-08 17:14:00,
2013-08-08 12:29:00,77.4,64.0,30.02,East,96,8.0,12.0,63,0.00,,,0.00,weatherlink.com 1.10,2013-08-08 17:29:00,
2013-08-08 12:44:00,78.4,67.0,30.01,ENE,77,4.0,10.0,67,0.00,,,0.00,weatherlink.com 1.10,2013-08-08 17:44:00,
2013-08-08 12:59:00,78.1,67.0,30.01,East,83,6.0,10.0,68,0.00,,,0.00,weatherlink.com 1.10,2013-08-08 17:59:00,
2013-08-08 13:14:00,77.8,65.0,30.01,ENE,57,7.0,12.0,65,0.00,,,0.00,weatherlink.com 1.10,2013-08-08 18:14:00,
2013-08-08 13:29:00,78.8,65.0,30.00,ESE,102,4.0,11.0,63,0.00,,,0.00,weatherlink.com 1.10,2013-08-08 18:29:00,
2013-08-08 13:44:00,78.5,65.0,30.00,ESE,102,4.0,7.0,64,0.00,,,0.00,weatherlink.com 1.10,2013-08-08 18:44:00,
2013-08-08 13:59:00,78.9,67.0,29.99,ENE,71,1.0,7.0,67,0.00,,,0.00,weatherlink.com 1.10,2013-08-08 18:59:00,
2013-08-08 14:14:00,78.0,66.0,30.00,NE,49,2.0,8.0,66,0.00,,,0.00,weatherlink.com 1.10,2013-08-08 19:14:00,
2013-08-08 14:29:00,78.6,67.0,29.99,NNE,33,5.0,12.0,68,0.00,,,0.00,weatherlink.com 1.10,2013-08-08 19:29:00,
2013-08-08 14:44:00,76.0,66.0,30.00,North,350,11.0,13.0,71,0.00,,,0.00,weatherlink.com 1.10,2013-08-08 19:44:00,
2013-08-08 14:59:00,75.6,65.0,30.00,NNE,22,12.0,16.0,70,0.00,,,0.00,weatherlink.com 1.10,2013-08-08 19:59:00,
2013-08-08 15:14:00,74.9,65.0,30.01,NNE,25,7.0,14.0,70,0.00,,,0.00,weatherlink.com 1.10,2013-08-08 20:14:00,
2013-08-08 15:29:00,75.2,64.0,30.00,ENE,70,10.0,12.0,68,0.00,,,0.00,weatherlink.com 1.10,2013-08-08 20:29:00,
2013-08-08 15:44:00,75.8,64.0,30.00,NNE,22,7.0,14.0,66,0.00,,,0.00,weatherlink.com 1.10,2013-08-08 20:44:00,
2013-08-08 15:59:00,77.0,65.0,30.00,NE,47,7.0,13.0,66,0.00,,,0.00,weatherlink.com 1.10,2013-08-08 20:59:00,
2013-08-08 16:29:00,76.9,65.0,29.99,North,6,8.0,14.0,66,0.00,,,0.00,weatherlink.com 1.10,2013-08-08 21:29:00,
2013-08-08 16:44:00,78.1,65.0,29.99,NE,47,9.0,13.0,64,0.00,,,0.00,weatherlink.com 1.10,2013-08-08 21:44:00,
2013-08-08 16:59:00,77.1,64.0,29.99,NNE,24,7.0,13.0,64,0.00,,,0.00,weatherlink.com 1.10,2013-08-08 21:59:00,
2013-08-08 17:14:00,76.5,63.0,29.99,North,9,4.0,12.0,64,0.00,,,0.00,weatherlink.com 1.10,2013-08-08 22:14:00,
2013-08-08 17:29:00,75.3,63.0,30.00,NNE,12,9.0,13.0,66,0.00,,,0.00,weatherlink.com 1.10,2013-08-08 22:29:00,
2013-08-08 17:44:00,75.7,63.0,30.00,NNE,33,3.0,14.0,64,0.00,,,0.00,weatherlink.com 1.10,2013-08-08 22:44:00,
2013-08-08 18:14:00,76.1,60.0,30.00,North,6,9.0,15.0,58,0.00,,,0.00,weatherlink.com 1.10,2013-08-08 23:14:00,
2013-08-08 18:29:00,74.3,60.0,30.00,NNE,20,11.0,12.0,62,0.00,,,0.00,weatherlink.com 1.10,2013-08-08 23:29:00,
2013-08-08 18:44:00,73.5,60.0,30.00,North,8,3.0,11.0,62,0.00,,,0.00,weatherlink.com 1.10,2013-08-08 23:44:00,
2013-08-08 18:59:00,72.4,60.0,30.01,North,4,8.0,12.0,66,0.00,,,0.00,weatherlink.com 1.10,2013-08-08 23:59:00,
2013-08-08 19:14:00,71.3,60.0,30.01,North,355,6.0,12.0,68,0.00,,,0.00,weatherlink.com 1.10,2013-08-09 00:14:00,
2013-08-08 19:29:00,70.4,61.0,30.01,North,6,8.0,11.0,72,0.00,,,0.00,weatherlink.com 1.10,2013-08-09 00:29:00,
2013-08-08 19:44:00,69.6,62.0,30.01,NNE,24,13.0,13.0,76,0.00,,,0.00,weatherlink.com 1.10,2013-08-09 00:44:00,
2013-08-08 19:59:00,69.2,62.0,30.01,NNE,16,11.0,12.0,78,0.00,,,0.00,weatherlink.com 1.10,2013-08-09 00:59:00,
2013-08-08 20:44:00,68.4,61.0,30.02,NNE,29,4.0,9.0,78,0.00,,,0.00,weatherlink.com 1.10,2013-08-09 01:44:00,
2013-08-08 20:59:00,68.2,61.0,30.02,NNE,20,3.0,10.0,78,0.00,,,0.00,weatherlink.com 1.10,2013-08-09 01:59:00,
2013-08-08 21:14:00,68.1,61.0,30.03,NNE,31,4.0,9.0,78,0.00,,,0.00,weatherlink.com 1.10,2013-08-09 02:14:00,
2013-08-08 21:35:00,68.0,61.0,30.03,NNE,21,4.0,8.0,79,0.00,,,0.00,weatherlink.com 1.10,2013-08-09 02:35:00,
2013-08-08 21:45:00,67.9,62.0,30.03,NNE,22,4.0,7.0,80,0.00,,,0.00,weatherlink.com 1.10,2013-08-09 02:45:00,
2013-08-08 21:59:00,67.8,61.0,30.02,NE,48,2.0,5.0,80,0.00,,,0.00,weatherlink.com 1.10,2013-08-09 02:59:00,
2013-08-08 22:14:00,67.6,62.0,30.02,NNE,12,3.0,8.0,81,0.00,,,0.00,weatherlink.com 1.10,2013-08-09 03:14:00,
2013-08-08 22:44:00,67.2,62.0,30.02,NNE,23,2.0,5.0,82,0.00,,,0.00,weatherlink.com 1.10,2013-08-09 03:44:00,
2013-08-08 22:59:00,67.1,62.0,30.02,North,8,4.0,6.0,83,0.00,,,0.00,weatherlink.com 1.10,2013-08-09 03:59:00,
2013-08-08 23:14:00,67.1,62.0,30.01,NNE,27,3.0,4.0,83,0.00,,,0.00,weatherlink.com 1.10,2013-08-09 04:14:00,
2013-08-08 23:29:00,67.0,62.0,30.02,NE,37,6.0,6.0,83,0.00,,,0.00,weatherlink.com 1.10,2013-08-09 04:29:00,
2013-08-08 23:44:00,67.1,61.0,30.02,NE,37,7.0,9.0,82,0.00,,,0.00,weatherlink.com 1.10,2013-08-09 04:44:00,
2013-08-08 23:59:00,67.2,62.0,30.02,ENE,57,4.0,9.0,82,0.00,,,0.00,weatherlink.com 1.10,2013-08-09 04:59:00,